Colby, WI

7:06 AM CST on January 30, 2015 (GMT -0600)
Wausau Downtown | Change Station
CLOSE
Current Station
Airport
Location: Wausau,
Elevation: 1201 ft
Nearby Weather Stations

Elev 1201 ft 44.93 °N, 89.63 °W | Updated 12 minutes ago

Partly Cloudy
Partly Cloudy
12 °F
Feels Like 6 °F
N
4
Wind Variable Wind from NW

Today
High -- | Low -- °F
--% Chance of Precip.
Yesterday
High -- | Low -- °F
Precip. -- in
7:23 AM 5:06 PM
Waxing Gibbous, 82% visible
Pressure 30.52 in
Visibility 10.0 miles
Clouds Overcast 2500 ft
Windchill 6 °F
Dew Point 3 °F
Humidity 67%
Rainfall 0.00 in
Snow Depth Not available.
UV 0 out of 12
Pollen .10 out of 12
Air Quality Not available.
Flu Activity Not available.
METAR KAUW 301254Z AUTO 32003KT 10SM OVC025 M11/M16 A3043 RMK AO2 SLP334 T11111161

More Conditions Fewer Conditions

Pressure 30.52 in
Visibility 10.0 miles
Clouds Overcast 2500 ft
Windchill 6 °F
Dew Point 3 °F
Humidity 67%
Rainfall 0.00 in
Snow Depth Not available.
UV 0 out of 12
Pollen .10 out of 12
Air Quality Not available.
Flu Activity Not available.
METAR KAUW 301254Z AUTO 32003KT 10SM OVC025 M11/M16 A3043 RMK AO2 SLP334 T11111161

More Conditions Fewer Conditions

10-Day Weather Forecast

Almanac

Astronomy

Jan. 30, 2015 Rise Set
Actual Time
Civil Twilight
Nautical Twilight
Astronomical Twilight
Moon
Length of Visible Light
Length of Day
Tomorrow will be .
, % of the Moon is Illuminated

Today's Extremes

State Highs State Lows

Community

WunderPhotos

Upload Photos

1,791,747 photos uploaded!

WunderBlogs® & News

Nearby

Air Quality

  Air Quality AQ Index Pollutant
Not available.

Snow Depth

Station Depth Elevation

Earthquake Activity

City Distance Mag. Time & Date
Minimum magnitude displayed is 2.5.

Coastal Water Temperatures

Place Temperature

Nearby Weather Stations